Terminal Aerodrome Forecast
Issued by NWS

Home | Current Version | Previous Version | Text Only | Print | Product List | Glossary On
Versions: 1 2 3 4 5 6 7 8 9 10 11 12 13 14 15 16 17
000
FTUS43 KAPX 211944 AAA
TAFMBL
TAF AMD
KMBL 211944Z 2120/2218 25005KT P6SM SKC
     FM220300 08004KT 2SM BR SCT150
     FM220900 19006KT 6SM BR SCT110
     FM221500 21007KT P6SM FEW200=

USA.gov is the U.S. government's official web portal to all federal, state and local government web resources and services.